Cottrellville Township, Michigan
Current Conditions -  °F | °C
As of 11:36 PM on Wednesday 22 Oct 2014 (Local Time) from KPHN Reporting Station
Clear Clear  
Wind Chill: 34°   Ceiling: Unl
Heat Index: 37°   Visibility: 10mi
Dew Point: 36°   Wind: 5mph
Humidity: 93%   Direction: 320°NW
Pressure: 30.27"   Gusts: NA
Location:  42.6968°N, 82.5536°W
Report Text: KPHN 230336Z AUTO 32004KT 10SM CLR 03/02 A3027 RMK AO2
Loading
Personal Weather Stations






























Interactive Weather Map
Tropical Storm Tracking
New forecast layout! Learn more

10-Day Weather Forecast

Advertisements
Track Severe Weather on mobile